Time;durP1;ratioP1;P1;durP2;ratioP2;P2;SDS_P1;SDS_P2;PMS_P1;PMS_P2;Temp;Humidity;BMP_temperature;BMP_pressure;BME280_temperature;BME280_humidity;BME280_pressure;Samples;Min_cycle;Max_cycle;Signal;HPM_P1;HPM_P2
2022/10/15 00:02:21;;;;;;;160.82;68.78;;;12.00;99.90;;;;;;5027148;28;20118;-77
2022/10/15 00:04:47;;;;;;;141.95;62.28;;;12.00;99.90;;;;;;5043918;28;20111;-77
2022/10/15 00:07:12;;;;;;;180.40;63.70;;;12.00;99.90;;;;;;5028880;28;20040;-78
2022/10/15 00:09:38;;;;;;;177.88;62.95;;;12.10;99.90;;;;;;5046413;28;20500;-78
2022/10/15 00:12:04;;;;;;;157.63;62.33;;;12.00;99.90;;;;;;5043901;28;20106;-77
2022/10/15 00:14:30;;;;;;;170.38;63.75;;;12.00;99.90;;;;;;5031610;28;20558;-77
2022/10/15 00:16:55;;;;;;;177.88;66.88;;;12.00;99.90;;;;;;5030791;28;20080;-78
2022/10/15 00:19:21;;;;;;;177.77;63.50;;;11.90;99.90;;;;;;5044984;28;20056;-77
2022/10/15 00:21:47;;;;;;;190.10;68.13;;;12.00;99.90;;;;;;5047671;28;20060;-78
2022/10/15 00:24:12;;;;;;;157.60;64.75;;;12.10;99.90;;;;;;5047794;28;20057;-77
2022/10/15 00:26:38;;;;;;;187.40;66.10;;;11.90;99.90;;;;;;5031171;28;20083;-77
2022/10/15 00:29:04;;;;;;;165.65;64.80;;;11.90;99.90;;;;;;5042411;28;20049;-77
2022/10/15 00:31:31;;;;;;;143.13;63.95;;;12.00;99.90;;;;;;5047044;28;20049;-77
2022/10/15 00:33:58;;;;;;;188.70;70.07;;;12.00;99.90;;;;;;5043314;28;20056;-77
2022/10/15 00:36:30;;;;;;;144.20;65.38;;;12.00;99.90;;;;;;5036973;28;20606;-77
2022/10/15 00:38:56;;;;;;;183.50;66.20;;;12.10;99.90;;;;;;5044608;28;20504;-77
2022/10/15 00:41:35;;;;;;;187.35;70.43;;;12.10;99.90;;;;;;5044563;28;20103;-77
2022/10/15 00:44:20;;;;;;;200.93;70.90;;;12.00;99.90;;;;;;5045252;28;20519;-77
2022/10/15 00:46:48;;;;;;;182.82;67.97;;;12.00;99.90;;;;;;5012852;28;20045;-77
2022/10/15 00:49:25;;;;;;;175.38;67.97;;;12.00;99.90;;;;;;5049271;28;20132;-77
2022/10/15 00:51:57;;;;;;;162.98;65.22;;;12.00;99.90;;;;;;5062056;28;20064;-77
2022/10/15 00:54:25;;;;;;;174.25;70.32;;;12.00;99.90;;;;;;5060562;28;20052;-77
2022/10/15 00:56:51;;;;;;;182.77;70.32;;;12.00;99.90;;;;;;5031093;28;20045;-77
2022/10/15 00:59:19;;;;;;;178.07;68.90;;;12.00;99.90;;;;;;5043454;28;20102;-77
2022/10/15 01:01:45;;;;;;;164.35;65.25;;;12.10;99.90;;;;;;5046624;28;20115;-78
2022/10/15 01:04:11;;;;;;;177.23;67.70;;;11.90;99.90;;;;;;5044373;28;20048;-78
2022/10/15 01:06:38;;;;;;;198.15;70.72;;;11.90;99.90;;;;;;5031260;28;20636;-77
2022/10/15 01:09:05;;;;;;;175.75;69.43;;;12.20;99.90;;;;;;5040385;28;20052;-76
2022/10/15 01:11:39;;;;;;;155.55;65.10;;;12.00;99.90;;;;;;5045365;28;20123;-77
2022/10/15 01:14:20;;;;;;;160.90;66.22;;;12.00;99.90;;;;;;5042667;28;20040;-77
2022/10/15 01:16:54;;;;;;;181.18;67.30;;;12.10;99.90;;;;;;5029342;28;20079;-77
2022/10/15 01:19:29;;;;;;;141.77;62.10;;;12.10;99.90;;;;;;5042467;28;20132;-77
2022/10/15 01:22:04;;;;;;;163.73;65.00;;;12.00;99.90;;;;;;5043644;28;20052;-77
2022/10/15 01:24:54;;;;;;;158.43;63.80;;;12.00;99.90;;;;;;5044212;28;20037;-77
2022/10/15 01:27:32;;;;;;;137.60;59.97;;;12.00;99.90;;;;;;5027634;28;20056;-77
2022/10/15 01:30:24;;;;;;;142.90;63.30;;;12.00;99.90;;;;;;5043128;28;20053;-77
2022/10/15 01:33:01;;;;;;;145.48;61.83;;;12.00;99.90;;;;;;5038207;28;20516;-77
2022/10/15 01:35:41;;;;;;;142.35;60.60;;;12.00;99.90;;;;;;5043120;28;20406;-77
2022/10/15 01:38:16;;;;;;;169.88;64.97;;;12.10;99.90;;;;;;5011468;28;20040;-77
2022/10/15 01:40:59;;;;;;;161.38;61.65;;;12.00;99.90;;;;;;5034613;28;20057;-77
2022/10/15 01:43:35;;;;;;;171.85;63.30;;;12.10;99.90;;;;;;5044956;28;20040;-77
2022/10/15 01:46:13;;;;;;;153.65;62.67;;;12.10;99.90;;;;;;5044210;28;20496;-77
2022/10/15 01:48:40;;;;;;;161.13;64.70;;;12.00;99.90;;;;;;5039858;28;20051;-77
2022/10/15 01:51:09;;;;;;;143.07;61.75;;;12.00;99.90;;;;;;5045773;28;20056;-76
2022/10/15 01:53:36;;;;;;;142.07;62.67;;;12.10;99.90;;;;;;5017399;28;20133;-77
2022/10/15 01:56:13;;;;;;;144.85;63.78;;;12.10;99.90;;;;;;5024703;28;20069;-77
2022/10/15 01:58:43;;;;;;;143.90;63.40;;;12.00;99.90;;;;;;5034430;28;20052;-78
2022/10/15 02:01:09;;;;;;;145.00;60.75;;;11.90;99.90;;;;;;5043687;28;20424;-77
2022/10/15 02:03:52;;;;;;;141.65;63.97;;;12.00;99.90;;;;;;5039569;28;20049;-77
2022/10/15 02:06:27;;;;;;;144.85;62.10;;;12.00;99.90;;;;;;5030386;28;20045;-77
2022/10/15 02:09:15;;;;;;;136.45;60.65;;;12.00;99.90;;;;;;5037432;28;20512;-77
2022/10/15 02:12:00;;;;;;;136.35;61.38;;;11.90;99.90;;;;;;5026254;28;20527;-77
2022/10/15 02:14:36;;;;;;;139.80;61.88;;;11.90;99.90;;;;;;5051391;28;20059;-78
2022/10/15 02:17:05;;;;;;;129.52;63.55;;;11.90;99.90;;;;;;5039459;28;20048;-77
2022/10/15 02:20:13;;;;;;;128.73;60.78;;;11.80;99.90;;;;;;5046047;28;20422;-77
2022/10/15 02:22:54;;;;;;;131.77;61.78;;;11.80;99.90;;;;;;5042277;28;20408;-77
2022/10/15 02:25:22;;;;;;;132.07;62.85;;;11.90;99.90;;;;;;5050785;28;20049;-77
2022/10/15 02:27:51;;;;;;;132.80;61.03;;;11.90;99.90;;;;;;5040928;28;20059;-77
2022/10/15 02:30:18;;;;;;;118.28;57.55;;;11.90;99.90;;;;;;5051211;28;20048;-77
2022/10/15 02:32:47;;;;;;;118.50;57.78;;;11.80;99.90;;;;;;5046911;28;20048;-77
2022/10/15 02:35:13;;;;;;;121.30;57.65;;;11.80;99.90;;;;;;5048737;28;20152;-77
2022/10/15 02:37:45;;;;;;;137.18;60.40;;;11.80;99.90;;;;;;5013627;28;20492;-77
2022/10/15 02:40:11;;;;;;;125.97;60.35;;;11.90;99.90;;;;;;5048846;28;20574;-77
2022/10/15 02:42:37;;;;;;;126.65;59.65;;;11.80;99.90;;;;;;5048793;28;20246;-78
2022/10/15 02:45:03;;;;;;;150.07;60.92;;;11.90;99.90;;;;;;5054175;28;20052;-77
2022/10/15 02:47:28;;;;;;;112.13;55.75;;;11.80;99.90;;;;;;5036583;28;20048;-77
2022/10/15 02:49:54;;;;;;;129.98;58.22;;;11.80;99.90;;;;;;5056187;28;20094;-77
2022/10/15 02:52:20;;;;;;;114.32;55.92;;;11.80;99.90;;;;;;5053261;28;20063;-77
2022/10/15 02:54:45;;;;;;;136.48;57.42;;;11.80;99.90;;;;;;5055872;28;20040;-77
2022/10/15 02:57:11;;;;;;;126.50;56.67;;;11.90;99.90;;;;;;5037408;28;20490;-77
2022/10/15 02:59:36;;;;;;;127.85;58.70;;;11.90;99.90;;;;;;5052487;28;20059;-77
2022/10/15 03:02:02;;;;;;;146.63;58.47;;;11.90;99.90;;;;;;5040323;28;20041;-77
2022/10/15 03:04:28;;;;;;;126.60;54.55;;;11.80;99.90;;;;;;5054720;28;20044;-77
2022/10/15 03:06:53;;;;;;;117.95;56.35;;;11.80;99.90;;;;;;5040921;28;20049;-77
2022/10/15 03:09:19;;;;;;;114.47;53.80;;;11.60;99.90;;;;;;5053649;28;20037;-78
2022/10/15 03:11:45;;;;;;;115.68;52.80;;;11.70;99.90;;;;;;5056507;28;20045;-77
2022/10/15 03:14:11;;;;;;;109.78;53.88;;;11.70;99.90;;;;;;5058786;28;20040;-77
2022/10/15 03:16:37;;;;;;;105.60;52.80;;;11.80;99.90;;;;;;5039070;28;20124;-77
2022/10/15 03:19:02;;;;;;;123.55;54.03;;;11.70;99.90;;;;;;5053996;28;20614;-77
2022/10/15 03:21:29;;;;;;;139.52;54.38;;;11.70;99.90;;;;;;5057597;28;20440;-77
2022/10/15 03:23:56;;;;;;;117.88;52.95;;;11.70;99.90;;;;;;5054674;28;20044;-77
2022/10/15 03:26:22;;;;;;;113.63;51.83;;;11.70;99.90;;;;;;5042088;28;20049;-77
2022/10/15 03:28:48;;;;;;;140.77;55.78;;;11.70;99.90;;;;;;5053359;28;20041;-78
2022/10/15 03:31:13;;;;;;;119.93;53.13;;;11.90;99.90;;;;;;5038318;28;20041;-77
2022/10/15 03:33:39;;;;;;;117.43;54.13;;;11.70;99.90;;;;;;5059352;28;20049;-77
2022/10/15 03:36:05;;;;;;;131.82;55.10;;;11.60;99.90;;;;;;5054869;28;20052;-77
2022/10/15 03:38:31;;;;;;;116.75;54.95;;;11.70;99.90;;;;;;5037452;28;20055;-77
2022/10/15 03:40:57;;;;;;;126.05;55.38;;;11.60;99.90;;;;;;5055936;28;20052;-77
2022/10/15 03:43:24;;;;;;;110.93;56.30;;;11.60;99.90;;;;;;5055616;28;20080;-77
2022/10/15 03:45:50;;;;;;;115.03;53.95;;;11.70;99.90;;;;;;5055421;28;20053;-78
2022/10/15 03:48:16;;;;;;;109.47;53.88;;;11.60;99.90;;;;;;5038142;28;20044;-77
2022/10/15 03:50:41;;;;;;;114.70;54.35;;;11.60;99.90;;;;;;5057161;28;21590;-77
2022/10/15 03:53:07;;;;;;;114.53;54.13;;;11.60;99.90;;;;;;5056864;28;20060;-77
2022/10/15 03:55:33;;;;;;;116.93;56.10;;;11.60;99.90;;;;;;5050224;28;20119;-77
2022/10/15 03:57:58;;;;;;;110.93;57.13;;;11.70;99.90;;;;;;5034059;28;20054;-77
2022/10/15 04:00:25;;;;;;;129.50;62.13;;;11.70;99.90;;;;;;5036314;28;20106;-77
2022/10/15 04:02:50;;;;;;;117.15;55.55;;;11.70;99.90;;;;;;5050582;28;20063;-77
2022/10/15 04:05:16;;;;;;;110.90;55.13;;;11.60;99.90;;;;;;5051915;28;20037;-77
2022/10/15 04:07:42;;;;;;;122.07;61.05;;;11.60;99.90;;;;;;5016637;28;20049;-77
2022/10/15 04:10:08;;;;;;;125.10;57.17;;;11.60;99.90;;;;;;5053645;28;20033;-77
2022/10/15 04:12:33;;;;;;;126.18;60.80;;;11.60;99.90;;;;;;5049285;28;20540;-77
2022/10/15 04:14:59;;;;;;;107.53;52.22;;;11.70;99.90;;;;;;5053774;28;20446;-77
2022/10/15 04:17:25;;;;;;;101.63;50.58;;;11.70;99.90;;;;;;5007501;28;20045;-77
2022/10/15 04:19:50;;;;;;;117.28;53.72;;;11.60;99.90;;;;;;5051390;28;20063;-77
2022/10/15 04:22:16;;;;;;;121.63;54.30;;;11.80;99.90;;;;;;5055228;28;20041;-77
2022/10/15 04:24:42;;;;;;;117.00;54.92;;;11.70;99.90;;;;;;5059790;28;20137;-78
2022/10/15 04:27:07;;;;;;;131.32;61.50;;;11.70;99.90;;;;;;5018581;28;20393;-77
2022/10/15 04:29:33;;;;;;;135.38;57.22;;;11.80;99.90;;;;;;5053221;28;20049;-78
2022/10/15 04:31:58;;;;;;;128.95;57.67;;;11.60;99.90;;;;;;5051816;28;20041;-78
2022/10/15 04:34:24;;;;;;;134.77;63.13;;;11.60;99.90;;;;;;5048146;28;20092;-78
2022/10/15 04:36:50;;;;;;;138.32;63.47;;;11.60;99.90;;;;;;5033288;28;20586;-78
2022/10/15 04:39:15;;;;;;;148.50;66.28;;;11.70;99.90;;;;;;5035750;28;20060;-77
2022/10/15 04:41:41;;;;;;;159.70;66.43;;;11.60;99.90;;;;;;5050676;28;20063;-78
2022/10/15 04:44:07;;;;;;;138.65;61.25;;;11.70;99.90;;;;;;5049968;28;20510;-77
2022/10/15 04:46:33;;;;;;;153.50;61.55;;;11.70;99.90;;;;;;5035018;28;20044;-77
2022/10/15 04:48:58;;;;;;;179.27;71.13;;;11.80;99.90;;;;;;5047922;28;20102;-80
2022/10/15 04:51:25;;;;;;;198.30;67.88;;;11.70;99.90;;;;;;5049617;28;20127;-79
2022/10/15 04:53:50;;;;;;;183.25;64.75;;;11.80;99.90;;;;;;5052742;28;20480;-79
2022/10/15 04:56:19;;;;;;;191.93;64.13;;;11.60;99.90;;;;;;5044350;28;20055;-79
2022/10/15 04:58:46;;;;;;;178.30;69.40;;;11.80;99.90;;;;;;5043110;28;20045;-79
2022/10/15 05:01:15;;;;;;;196.43;72.43;;;11.80;99.90;;;;;;5050239;28;20503;-79
2022/10/15 05:03:43;;;;;;;179.13;68.68;;;11.70;99.90;;;;;;5040362;28;20048;-79
2022/10/15 05:06:18;;;;;;;168.45;68.07;;;11.70;99.90;;;;;;5046243;28;20083;-78
2022/10/15 05:08:44;;;;;;;173.18;68.10;;;11.70;99.90;;;;;;5045997;28;20052;-79
2022/10/15 05:11:16;;;;;;;191.70;73.07;;;11.70;99.90;;;;;;5048982;28;20057;-78
2022/10/15 05:13:42;;;;;;;178.15;69.85;;;11.80;99.90;;;;;;5051303;28;20041;-79
2022/10/15 05:16:27;;;;;;;160.02;62.53;;;11.70;99.90;;;;;;5044809;28;20067;-78
2022/10/15 05:18:59;;;;;;;161.77;63.17;;;11.70;99.90;;;;;;5045430;28;20062;-79
2022/10/15 05:21:25;;;;;;;169.20;65.88;;;11.60;99.90;;;;;;5051336;28;20072;-80
2022/10/15 05:23:51;;;;;;;153.70;62.60;;;11.60;99.90;;;;;;5047357;28;20040;-80
2022/10/15 05:26:21;;;;;;;159.77;63.75;;;11.60;99.90;;;;;;5038374;28;20037;-79
2022/10/15 05:28:47;;;;;;;152.32;63.58;;;11.50;99.90;;;;;;5027324;28;20607;-80
2022/10/15 05:31:15;;;;;;;166.52;67.22;;;11.70;99.90;;;;;;5051796;28;20087;-81
2022/10/15 05:33:41;;;;;;;178.88;68.55;;;11.60;99.90;;;;;;5049930;28;20037;-79
2022/10/15 05:36:13;;;;;;;200.35;75.53;;;11.50;99.90;;;;;;5044605;28;20047;-80
2022/10/15 05:38:39;;;;;;;189.52;72.95;;;11.50;99.90;;;;;;5040678;28;20041;-79
2022/10/15 05:41:05;;;;;;;166.73;69.10;;;11.60;99.90;;;;;;5047908;28;20057;-80
2022/10/15 05:43:31;;;;;;;152.00;66.18;;;11.50;99.90;;;;;;5048871;28;20372;-81
2022/10/15 05:45:57;;;;;;;153.07;68.38;;;11.60;99.90;;;;;;5049502;28;20036;-81
2022/10/15 05:48:23;;;;;;;157.75;69.50;;;11.50;99.90;;;;;;5029969;28;20056;-79
2022/10/15 05:50:48;;;;;;;182.80;73.35;;;11.50;99.90;;;;;;5049781;28;20070;-80
2022/10/15 05:53:14;;;;;;;167.23;68.97;;;11.60;99.90;;;;;;5047302;28;20045;-79
2022/10/15 05:55:40;;;;;;;171.15;69.68;;;11.70;99.90;;;;;;5001541;28;20061;-80
2022/10/15 05:58:05;;;;;;;168.60;71.78;;;11.60;99.90;;;;;;4973338;28;20078;-81
2022/10/15 06:00:32;;;;;;;197.48;82.97;;;11.50;99.90;;;;;;4977984;28;20044;-81
2022/10/15 06:02:58;;;;;;;182.82;74.50;;;11.50;99.90;;;;;;4980757;28;20057;-80
2022/10/15 06:05:24;;;;;;;209.27;82.07;;;11.70;99.90;;;;;;4981468;28;20142;-78
2022/10/15 06:07:50;;;;;;;188.00;77.38;;;11.50;99.90;;;;;;4988053;28;20045;-81
2022/10/15 06:10:16;;;;;;;165.98;72.55;;;11.60;99.90;;;;;;4984908;28;20490;-78
2022/10/15 06:12:42;;;;;;;181.75;75.90;;;11.50;99.90;;;;;;4985675;28;20056;-81
2022/10/15 06:15:08;;;;;;;230.82;86.82;;;11.50;99.90;;;;;;4991765;28;20736;-79
2022/10/15 06:17:34;;;;;;;203.95;81.60;;;11.60;99.90;;;;;;4988817;28;20053;-79
2022/10/15 06:20:00;;;;;;;191.20;78.13;;;11.50;99.90;;;;;;4985183;28;20139;-79
2022/10/15 06:22:28;;;;;;;192.38;79.25;;;11.50;99.90;;;;;;4972801;28;21368;-79
2022/10/15 06:24:55;;;;;;;204.27;80.40;;;11.50;99.90;;;;;;5001952;28;20211;-79
2022/10/15 06:27:20;;;;;;;201.35;79.38;;;11.60;99.90;;;;;;4970510;28;20033;-79
2022/10/15 06:29:46;;;;;;;216.13;84.25;;;11.60;99.90;;;;;;4990502;28;20148;-80
2022/10/15 06:32:12;;;;;;;191.60;78.78;;;11.50;99.90;;;;;;4997631;28;20056;-79
2022/10/15 06:34:37;;;;;;;198.90;85.50;;;11.70;99.90;;;;;;4986242;28;20055;-80
2022/10/15 06:37:03;;;;;;;203.30;84.95;;;11.60;99.90;;;;;;4979229;28;20051;-80
2022/10/15 06:39:29;;;;;;;197.82;80.75;;;11.60;99.90;;;;;;4983196;28;20053;-78
2022/10/15 06:41:54;;;;;;;191.57;83.57;;;11.50;99.90;;;;;;4983414;28;20064;-80
2022/10/15 06:44:20;;;;;;;209.80;87.10;;;11.50;99.90;;;;;;4999891;28;20061;-80
2022/10/15 06:46:46;;;;;;;209.75;85.72;;;11.50;99.90;;;;;;4978069;28;20509;-79
2022/10/15 06:49:11;;;;;;;212.80;84.93;;;11.50;99.90;;;;;;4986624;28;20568;-78
2022/10/15 06:51:37;;;;;;;236.27;92.30;;;11.60;99.90;;;;;;4987252;28;20474;-82
2022/10/15 06:54:03;;;;;;;228.30;89.32;;;11.70;99.90;;;;;;4984519;28;20052;-79
2022/10/15 06:56:29;;;;;;;224.30;86.43;;;11.70;99.90;;;;;;4979921;28;20045;-79
2022/10/15 06:58:54;;;;;;;224.98;92.20;;;11.70;99.90;;;;;;4987968;28;20056;-81
2022/10/15 07:01:20;;;;;;;240.63;93.25;;;11.70;99.90;;;;;;4992082;28;20083;-80
2022/10/15 07:03:50;;;;;;;220.57;91.05;;;11.70;99.90;;;;;;4983458;28;20065;-80
2022/10/15 07:06:16;;;;;;;221.05;88.43;;;11.60;99.90;;;;;;4978082;28;20037;-80
2022/10/15 07:08:42;;;;;;;217.82;86.07;;;11.60;99.90;;;;;;4961329;28;20076;-80
2022/10/15 07:11:08;;;;;;;202.00;84.60;;;11.70;99.90;;;;;;4986932;28;20102;-81
2022/10/15 07:13:34;;;;;;;211.00;85.07;;;11.70;99.90;;;;;;4995177;28;20082;-79
2022/10/15 07:16:08;;;;;;;188.13;81.53;;;11.60;99.90;;;;;;4983008;28;20429;-80
2022/10/15 07:18:34;;;;;;;194.63;80.90;;;11.60;99.90;;;;;;4927480;28;20115;-79
2022/10/15 07:21:00;;;;;;;201.48;82.82;;;11.70;99.90;;;;;;4934038;28;20152;-78
2022/10/15 07:23:27;;;;;;;212.55;82.13;;;11.60;99.90;;;;;;4933288;28;20053;-78
2022/10/15 07:25:53;;;;;;;196.18;82.18;;;11.80;99.90;;;;;;4936088;28;21175;-79
2022/10/15 07:28:18;;;;;;;191.07;81.43;;;11.70;99.90;;;;;;4922572;28;20503;-80
2022/10/15 07:30:44;;;;;;;188.05;80.55;;;11.60;99.90;;;;;;4933978;28;20085;-78
2022/10/15 07:33:10;;;;;;;210.88;82.50;;;11.80;99.90;;;;;;4935984;28;21758;-80
2022/10/15 07:35:36;;;;;;;194.13;83.15;;;11.80;99.90;;;;;;4954125;28;21343;-81
2022/10/15 07:38:03;;;;;;;208.63;83.47;;;11.90;99.90;;;;;;4927851;28;21872;-80
2022/10/15 07:40:28;;;;;;;185.32;83.60;;;12.00;99.90;;;;;;4940324;28;20065;-81
2022/10/15 07:42:56;;;;;;;189.52;84.00;;;11.90;99.90;;;;;;4942410;28;20092;-81
2022/10/15 07:45:22;;;;;;;195.40;82.82;;;11.80;99.90;;;;;;4940386;28;20069;-80
2022/10/15 07:47:48;;;;;;;191.93;84.55;;;11.90;99.90;;;;;;4931381;28;20148;-79
2022/10/15 07:50:14;;;;;;;240.48;103.07;;;11.80;99.90;;;;;;4925875;28;20586;-80
2022/10/15 07:52:40;;;;;;;255.10;112.20;;;11.80;99.90;;;;;;4942975;28;20136;-79
2022/10/15 07:55:06;;;;;;;268.17;96.63;;;11.90;99.90;;;;;;4922402;28;20038;-79
2022/10/15 07:57:32;;;;;;;211.82;84.53;;;11.90;99.90;;;;;;4911094;28;20053;-79
2022/10/15 07:59:57;;;;;;;202.30;83.25;;;12.00;99.90;;;;;;4942385;28;20173;-78
2022/10/15 08:02:23;;;;;;;198.75;84.93;;;11.90;99.90;;;;;;4939313;28;20168;-78
2022/10/15 08:04:49;;;;;;;226.50;89.03;;;12.00;99.90;;;;;;4932952;28;20056;-79
2022/10/15 08:07:15;;;;;;;204.65;87.93;;;12.20;99.90;;;;;;4930129;28;20049;-78
2022/10/15 08:09:40;;;;;;;229.30;88.30;;;12.10;99.90;;;;;;4941464;28;20061;-78
2022/10/15 08:12:06;;;;;;;204.55;86.25;;;12.20;99.90;;;;;;4923199;28;20119;-77
2022/10/15 08:14:36;;;;;;;196.55;83.80;;;12.30;99.90;;;;;;4939347;28;20168;-79
2022/10/15 08:17:05;;;;;;;196.82;81.03;;;12.30;99.90;;;;;;4927858;28;20548;-77
2022/10/15 08:19:30;;;;;;;193.63;86.07;;;12.30;99.90;;;;;;4925987;28;20146;-79
2022/10/15 08:21:57;;;;;;;198.95;85.55;;;12.30;99.90;;;;;;4926648;28;20781;-81
2022/10/15 08:24:23;;;;;;;179.73;83.65;;;12.30;99.90;;;;;;4942592;28;21785;-81
2022/10/15 08:26:48;;;;;;;194.07;83.60;;;12.30;99.90;;;;;;4930074;28;20061;-80
2022/10/15 08:29:14;;;;;;;201.25;88.13;;;12.40;99.90;;;;;;4939644;28;20053;-80
2022/10/15 08:31:40;;;;;;;185.95;82.85;;;12.50;99.90;;;;;;4939395;28;20048;-78
2022/10/15 08:34:06;;;;;;;185.57;84.80;;;12.40;99.90;;;;;;4937202;28;20041;-81
2022/10/15 08:36:32;;;;;;;190.40;81.80;;;12.40;99.90;;;;;;4929658;28;20049;-78
2022/10/15 08:38:58;;;;;;;205.32;86.90;;;12.40;99.90;;;;;;4907780;28;22067;-79
2022/10/15 08:41:31;;;;;;;211.30;86.30;;;12.40;99.90;;;;;;4927204;28;20055;-77
2022/10/15 08:43:58;;;;;;;277.23;93.00;;;12.50;99.90;;;;;;4943718;28;20166;-79
2022/10/15 08:46:38;;;;;;;189.77;84.07;;;12.60;99.90;;;;;;4935921;28;20057;-78
2022/10/15 08:49:06;;;;;;;187.63;77.93;;;12.60;99.90;;;;;;4940236;28;20139;-78
2022/10/15 08:51:45;;;;;;;185.55;78.68;;;12.60;99.90;;;;;;4946492;28;20517;-77
2022/10/15 08:54:17;;;;;;;175.73;74.78;;;12.50;99.90;;;;;;4943387;28;20046;-78
2022/10/15 08:56:44;;;;;;;;;;;12.70;99.90;;;;;;4928717;28;20050;-78
2022/10/15 08:59:35;;;;;;;164.20;73.45;;;12.50;99.90;;;;;;4953297;28;21059;-78
2022/10/15 09:02:29;;;;;;;157.23;70.93;;;12.60;99.90;;;;;;4941370;28;20067;-78
2022/10/15 09:05:27;;;;;;;151.00;69.63;;;12.70;99.90;;;;;;4937648;28;20053;-79
2022/10/15 09:08:03;;;;;;;135.73;67.05;;;12.70;99.90;;;;;;4923137;28;21235;-79
2022/10/15 09:10:38;;;;;;;136.15;68.40;;;12.80;99.90;;;;;;4940144;28;20049;-80
2022/10/15 09:13:39;;;;;;;139.55;70.47;;;12.70;99.90;;;;;;4940500;28;21518;-79
2022/10/15 09:16:18;;;;;;;128.47;64.00;;;12.90;99.90;;;;;;4933142;28;20119;-78
2022/10/15 09:18:46;;;;;;;118.63;61.28;;;12.90;99.90;;;;;;4936197;28;20288;-78
2022/10/15 09:21:13;;;;;;;127.60;64.20;;;12.80;99.90;;;;;;4921813;28;20045;-80
2022/10/15 09:23:40;;;;;;;111.28;60.85;;;12.80;99.90;;;;;;4936400;28;20053;-79
2022/10/15 09:26:20;;;;;;;107.30;58.25;;;12.90;99.90;;;;;;4938051;28;20131;-79
2022/10/15 09:28:53;;;;;;;114.57;60.88;;;12.80;99.90;;;;;;4936059;28;21485;-77
2022/10/15 09:31:26;;;;;;;112.45;59.45;;;12.80;99.90;;;;;;4939673;28;20525;-79
2022/10/15 09:34:00;;;;;;;102.15;53.10;;;12.80;99.90;;;;;;4938847;28;20333;-78
2022/10/15 09:36:42;;;;;;;98.93;53.13;;;12.80;99.90;;;;;;4932239;28;20049;-79
2022/10/15 09:39:29;;;;;;;108.18;57.75;;;12.70;99.90;;;;;;4950919;28;20049;-79
2022/10/15 09:42:17;;;;;;;108.38;53.67;;;12.60;99.90;;;;;;4950711;28;20041;-78
2022/10/15 09:44:44;;;;;;;98.43;51.13;;;12.70;99.90;;;;;;4951183;28;20049;-78
2022/10/15 09:47:31;;;;;;;100.45;51.83;;;12.60;99.90;;;;;;4934528;28;20825;-79
2022/10/15 09:49:57;;;;;;;88.95;49.70;;;12.70;99.90;;;;;;4951925;28;21085;-79
2022/10/15 09:52:53;;;;;;;91.47;49.67;;;12.70;99.90;;;;;;4928904;28;21565;-80
2022/10/15 09:55:39;;;;;;;82.13;44.92;;;12.70;99.90;;;;;;4948162;28;20069;-77
2022/10/15 09:58:11;;;;;;;78.68;45.17;;;12.80;99.90;;;;;;4937004;28;20041;-78
2022/10/15 10:00:55;;;;;;;86.18;46.30;;;12.70;99.90;;;;;;4946843;28;20052;-78
2022/10/15 10:03:23;;;;;;;84.85;46.65;;;12.80;99.90;;;;;;4948068;28;20565;-78
2022/10/15 10:05:49;;;;;;;77.35;43.35;;;12.60;99.90;;;;;;4946383;28;20057;-79
2022/10/15 10:08:15;;;;;;;72.28;39.88;;;12.70;99.90;;;;;;4933108;28;21718;-76
2022/10/15 10:10:41;;;;;;;65.95;38.92;;;12.50;99.90;;;;;;4957755;28;20049;-79
2022/10/15 10:13:22;;;;;;;68.93;38.38;;;12.50;99.90;;;;;;4957017;28;20045;-80
2022/10/15 10:15:50;;;;;;;72.40;40.08;;;12.70;99.90;;;;;;4945957;28;20064;-76
2022/10/15 10:18:22;;;;;;;72.78;38.42;;;12.70;99.90;;;;;;4927023;28;20520;-80
2022/10/15 10:20:53;;;;;;;74.53;40.80;;;12.70;99.90;;;;;;4942510;28;20053;-79
2022/10/15 10:23:34;;;;;;;74.63;41.75;;;12.70;99.90;;;;;;4940493;28;20053;-80
2022/10/15 10:26:05;;;;;;;72.00;39.93;;;12.70;99.90;;;;;;4941082;28;20156;-78
2022/10/15 10:28:33;;;;;;;;;;;12.80;99.90;;;;;;4931207;28;21712;-78
2022/10/15 10:31:08;;;;;;;78.68;41.45;;;12.80;99.90;;;;;;4941885;28;21663;-78
2022/10/15 10:33:47;;;;;;;79.72;43.03;;;13.00;99.90;;;;;;4936817;28;20255;-79
2022/10/15 10:36:35;;;;;;;92.03;48.17;;;13.00;99.90;;;;;;4933137;28;20069;-79
2022/10/15 10:39:18;;;;;;;74.50;42.47;;;13.00;99.90;;;;;;4938428;28;20767;-78
2022/10/15 10:41:53;;;;;;;77.20;40.78;;;13.10;99.90;;;;;;4940637;28;20057;-77
2022/10/15 10:44:26;;;;;;;71.25;41.00;;;13.30;99.90;;;;;;4938082;28;20049;-78
2022/10/15 10:47:22;;;;;;;71.63;39.47;;;13.30;99.90;;;;;;4927033;28;20160;-78
2022/10/15 10:49:51;;;;;;;63.17;37.35;;;13.40;99.90;;;;;;4935392;28;20064;-79
2022/10/15 10:52:32;;;;;;;60.20;37.75;;;13.40;99.90;;;;;;4934014;28;21350;-79
2022/10/15 10:55:18;;;;;;;67.15;37.67;;;13.40;99.90;;;;;;4918948;28;21151;-78
2022/10/15 10:57:51;;;;;;;61.47;37.13;;;13.50;99.90;;;;;;4921044;28;20054;-79
2022/10/15 11:00:37;;;;;;;60.65;35.60;;;13.40;99.90;;;;;;4934068;28;21371;-79
2022/10/15 11:03:03;;;;;;;58.20;32.75;;;13.60;99.90;;;;;;4932004;28;20053;-78
2022/10/15 11:05:32;;;;;;;48.13;31.23;;;13.60;99.90;;;;;;4936492;28;20493;-78
2022/10/15 11:08:23;;;;;;;56.80;34.30;;;13.60;99.90;;;;;;4927008;28;21079;-79
2022/10/15 11:10:55;;;;;;;51.88;32.10;;;13.60;99.90;;;;;;4938297;28;20069;-79
2022/10/15 11:13:53;;;;;;;42.20;28.00;;;13.50;99.90;;;;;;4934305;28;20502;-78
2022/10/15 11:16:52;;;;;;;40.22;25.92;;;13.50;99.90;;;;;;4928729;28;20053;-77
2022/10/15 11:19:28;;;;;;;46.53;28.33;;;13.60;99.90;;;;;;4939190;28;20053;-78
2022/10/15 11:22:17;;;;;;;41.95;27.00;;;13.60;99.90;;;;;;4942470;28;20143;-78
2022/10/15 11:24:46;;;;;;;43.97;27.58;;;13.60;99.90;;;;;;4939795;28;20076;-78
2022/10/15 11:27:17;;;;;;;36.25;23.52;;;13.70;99.90;;;;;;4930343;28;20140;-79
2022/10/15 11:30:01;;;;;;;37.83;25.20;;;13.80;99.90;;;;;;4939115;28;20138;-78
2022/10/15 11:32:53;;;;;;;40.33;24.88;;;13.80;99.90;;;;;;4943951;28;20725;-78
2022/10/15 11:35:37;;;;;;;34.13;23.25;;;13.90;99.90;;;;;;4941024;28;21248;-77
2022/10/15 11:38:24;;;;;;;34.55;21.50;;;13.90;99.90;;;;;;4925647;28;20068;-78
2022/10/15 11:41:14;;;;;;;33.60;21.88;;;13.90;99.90;;;;;;4940288;28;20749;-78
2022/10/15 11:44:02;;;;;;;32.27;21.93;;;14.00;99.90;;;;;;4955751;28;20072;-77
2022/10/15 11:46:51;;;;;;;32.78;21.20;;;14.00;99.90;;;;;;4930378;28;20322;-78
2022/10/15 11:49:31;;;;;;;27.40;19.35;;;14.00;99.90;;;;;;4937053;28;20087;-78
2022/10/15 11:52:06;;;;;;;29.30;19.75;;;14.20;99.90;;;;;;4939438;28;20068;-77
2022/10/15 11:54:47;;;;;;;25.33;18.90;;;14.30;99.90;;;;;;4938082;28;20049;-79
2022/10/15 11:57:17;;;;;;;27.88;18.77;;;14.30;99.90;;;;;;4927621;28;20057;-79
2022/10/15 12:00:00;;;;;;;26.77;19.58;;;14.40;99.90;;;;;;4938562;28;20693;-77
2022/10/15 12:02:33;;;;;;;27.75;17.52;;;14.40;99.90;;;;;;4940344;28;20392;-77
2022/10/15 12:05:04;;;;;;;28.42;20.05;;;14.40;99.90;;;;;;4937796;28;22111;-78
2022/10/15 12:07:42;;;;;;;26.13;18.38;;;14.60;99.90;;;;;;4923137;28;20934;-78
2022/10/15 12:10:29;;;;;;;28.27;19.42;;;14.50;99.90;;;;;;4935292;28;20139;-78
2022/10/15 12:13:05;;;;;;;28.98;18.80;;;14.70;99.90;;;;;;4935639;28;20081;-77
2022/10/15 12:15:43;;;;;;;29.25;20.13;;;14.60;99.90;;;;;;4936478;28;20907;-77
2022/10/15 12:18:32;;;;;;;29.25;20.25;;;14.70;99.90;;;;;;4919517;28;20484;-77
2022/10/15 12:20:58;;;;;;;31.35;22.00;;;14.60;99.90;;;;;;4951425;28;21969;-78
2022/10/15 12:23:37;;;;;;;26.08;19.42;;;14.60;99.90;;;;;;4938195;28;20053;-77
2022/10/15 12:26:23;;;;;;;30.92;21.92;;;14.50;99.90;;;;;;4938784;28;20512;-78
2022/10/15 12:28:51;;;;;;;26.38;19.17;;;14.40;99.90;;;;;;4934171;28;20098;-77
2022/10/15 12:31:20;;;;;;;27.17;19.52;;;14.40;99.90;;;;;;4938476;28;20073;-78
2022/10/15 12:33:47;;;;;;;27.27;19.92;;;14.40;99.90;;;;;;4939699;28;21270;-77
2022/10/15 12:36:31;;;;;;;27.77;19.85;;;14.40;99.90;;;;;;4931387;28;20064;-78
2022/10/15 12:39:18;;;;;;;30.10;19.73;;;14.40;99.90;;;;;;4951657;28;20345;-79
2022/10/15 12:41:46;;;;;;;29.60;20.70;;;14.50;99.90;;;;;;4938894;28;20045;-77